Fisher, IL (61843)

10:34 AM CDT on July 07, 2015 (GMT -0500)
Fisher Elmwood Drive | | Change Station
CLOSE
Current Station
Personal Weather Station
Location: Fisher, IL
Elevation: 722 ft
Nearby Weather Stations

Elev 722 ft 40.32 °N, 88.35 °W | Updated 4 minutes ago

Overcast
Overcast
62.9 °F
Feels Like 62.9 °F
N
4.7
Wind Variable Wind from NNE

Today
High -- | Low -- °F
--% Chance of Precip.
Yesterday
High -- | Low -- °F
Precip. -- in
5:30 AM 8:25 PM
Waning Gibbous, 64% visible
Pressure 29.93 in
Visibility 5.0 miles
Clouds Overcast 400 ft
Dew Point 60 °F
Humidity 89%
Rainfall 0.33 in
Snow Depth Not available.
UV 2 out of 12
Pollen .50 out of 12
Air Quality Not available.
Flu Activity Not available.
METAR KTIP 071515Z AUTO 01014G22KT 5SM BR OVC004 19/18 A2993 RMK AO2 LTG DSNT SE T01910180

More Conditions Fewer Conditions

Pressure 29.93 in
Visibility 5.0 miles
Clouds Overcast 400 ft
Dew Point 60 °F
Humidity 89%
Rainfall 0.33 in
Snow Depth Not available.
UV 2 out of 12
Pollen .50 out of 12
Air Quality Not available.
Flu Activity Not available.
METAR KTIP 071515Z AUTO 01014G22KT 5SM BR OVC004 19/18 A2993 RMK AO2 LTG DSNT SE T01910180

More Conditions Fewer Conditions

10-Day Weather Forecast

×

Almanac

Astronomy

Jul. 07, 2015 Rise Set
Actual Time
Civil Twilight
Nautical Twilight
Astronomical Twilight
Moon
Length of Visible Light
Length of Day
Tomorrow will be .
, % of the Moon is Illuminated

Today's Extremes

State Highs State Lows

Community

WunderPhotos

Upload Photos

1,835,818 photos uploaded!

WunderBlogs® & News

Nearby

Air Quality

  Air Quality AQ Index Pollutant
Not available.

Snow Depth

Station Depth Elevation

Earthquake Activity

City Distance Mag. Time & Date
Minimum magnitude displayed is 2.5.

Coastal Water Temperatures

Place Temperature

Stations

Nearby Weather Stations

Station Location Temp. Windchill Dew Point Humidity Wind Precip. Elev Updated Type